Accueil
METAR-TAF:

METAR-TAF

Aéroports :

Aéroport de Metz-Nancy-Lorraine

Metz-Nancy-Lorraine, France

latitude: 48-59N, longitude: 006-15E, altitude: 264 m

Observation

Le bulletin a été fait il y a 10 minutes, à 13:00 UTC
Vent 10 kt de ouest/sud-ouest
Température 22°C
Humidité 57%
Pression 1023 hPa
Visibilité 10 km ou plus
Quelques nuages à une hauteur de 3400 ft
Ciel couvert à une hauteur de 4800 ft

METAR: LFJL 181300Z AUTO 25010KT 9999 FEW034 OVC048 22/13 Q1023 NOSIG

Heure: 15:10 (13:10 UTC)

Prévision

Le bulletin a été fait il y a 2 heures et 10 minutes, à 11:00 UTC
Prévision valable du 18 à 12 UTC au 19 à 12 UTC
Vent 6 kt de ouest/sud-ouest
Visibilité 10 km ou plus
Quelques nuages à une hauteur de 3500 ft
Nuages fragmentés à une hauteur de 5000 ft

TAF: LFJL 181100Z 1812/1912 25006KT 9999 FEW035 BKN050

Observations et prévisions météorologiques de plus de 4000 aéroports (messages METAR et TAF).

Les stations disponibles sont représentées par des disques jaunes et rouges sur la carte.

Passer la souris dessus pour voir le nom de la station.

Cliquer dessus pour voir les observations et prévisions météorologiques.

Pour changer de carte: cliquez sur les boutons verts avec une croix noire pour zoomer, sur le bouton vert avec un tiret pour effectuer un zoom arrière, ou sur les flèches vertes pour les cartes adjacentes.


METAR-TAF: